AEE317 LGIO-EPWA
Flight info
| Callsign | AEE317 |
|---|---|
| Flight time | N/A |
| Altitude | 36000 |
| Route | KAS UN731 BITLA DCT LONTA UM749 UDVAR DCT PARAK DCT PITOK DCT KELEL/N0456F370 DCT LOGDA |
| Aircraft | A321/M-SDE3FGHIRWY/LB1 |
Departure
| Time | 2026-04-17 10:03 |
|---|---|
| Airport | Ioannina King Pyrrhus National Airport (LGIO) |
Arrival
| Time | N/A |
|---|---|
| Airport | Warsaw Chopin Airport (EPWA) |
| Time | Latitude | Longitude | Altitude | Speed | Heading |
|---|---|---|---|---|---|
| 2026-04-17 09:33 | 39.69332 | 20.82323 | 1565 ft | 0 kts | 268° |
| 2026-04-17 09:57 | 39.69339 | 20.82309 | 1565 ft | 4 kts | 315° |
| 2026-04-17 09:58 | 39.69369 | 20.82338 | 1565 ft | 8 kts | 83° |
| 2026-04-17 09:58 | 39.69342 | 20.82411 | 1565 ft | 10 kts | 131° |
| 2026-04-17 09:58 | 39.69288 | 20.82477 | 1565 ft | 11 kts | 127° |
| 2026-04-17 09:58 | 39.69263 | 20.82547 | 1565 ft | 0 kts | 111° |
| 2026-04-17 09:59 | 39.69262 | 20.82548 | 1565 ft | 1 kts | 111° |
| 2026-04-17 09:59 | 39.69253 | 20.82578 | 1566 ft | 6 kts | 111° |
| 2026-04-17 09:59 | 39.69230 | 20.82653 | 1567 ft | 12 kts | 111° |
| 2026-04-17 10:00 | 39.69179 | 20.82754 | 1568 ft | 14 kts | 138° |
| 2026-04-17 10:00 | 39.69099 | 20.82839 | 1568 ft | 16 kts | 142° |
| 2026-04-17 10:00 | 39.69016 | 20.82924 | 1568 ft | 15 kts | 141° |
| 2026-04-17 10:00 | 39.68949 | 20.83002 | 1568 ft | 10 kts | 125° |
| 2026-04-17 10:01 | 39.68910 | 20.83048 | 1567 ft | 3 kts | 213° |
| 2026-04-17 10:01 | 39.68920 | 20.83026 | 1567 ft | 4 kts | 307° |
| 2026-04-17 10:01 | 39.68940 | 20.83003 | 1567 ft | 0 kts | 319° |
| 2026-04-17 10:02 | 39.69044 | 20.82894 | 1568 ft | 55 kts | 322° |
| 2026-04-17 10:02 | 39.69537 | 20.82391 | 1566 ft | 123 kts | 322° |
| 2026-04-17 10:03 | 39.70360 | 20.81551 | 1632 ft | 169 kts | 322° |
| 2026-04-17 10:03 | 39.71223 | 20.80685 | 2508 ft | 153 kts | 323° |
| 2026-04-17 10:03 | 39.71971 | 20.79643 | 3099 ft | 162 kts | 310° |
| 2026-04-17 10:03 | 39.72668 | 20.78438 | 3558 ft | 175 kts | 309° |
| 2026-04-17 10:04 | 39.73457 | 20.77084 | 3832 ft | 201 kts | 309° |
| 2026-04-17 10:04 | 39.74373 | 20.75596 | 4176 ft | 220 kts | 311° |
| 2026-04-17 10:04 | 39.75388 | 20.74053 | 4686 ft | 229 kts | 312° |
| 2026-04-17 10:04 | 39.76433 | 20.72482 | 5391 ft | 230 kts | 312° |
| 2026-04-17 10:05 | 39.77496 | 20.70898 | 6049 ft | 238 kts | 317° |
| 2026-04-17 10:05 | 39.78957 | 20.69769 | 6339 ft | 256 kts | 347° |
| 2026-04-17 10:05 | 39.80768 | 20.69797 | 6716 ft | 269 kts | 19° |
| 2026-04-17 10:05 | 39.82406 | 20.71002 | 7328 ft | 274 kts | 35° |
| 2026-04-17 10:06 | 39.83982 | 20.72427 | 8048 ft | 277 kts | 35° |
| 2026-04-17 10:06 | 39.85579 | 20.73859 | 8790 ft | 280 kts | 35° |
| 2026-04-17 10:06 | 39.87190 | 20.75303 | 9502 ft | 283 kts | 35° |
| 2026-04-17 10:06 | 39.88822 | 20.76757 | 10165 ft | 287 kts | 34° |
| 2026-04-17 10:07 | 39.90534 | 20.78278 | 10358 ft | 309 kts | 34° |
| 2026-04-17 10:07 | 39.92364 | 20.79910 | 10510 ft | 329 kts | 34° |
| 2026-04-17 10:07 | 39.94309 | 20.81649 | 10672 ft | 347 kts | 34° |
| 2026-04-17 10:07 | 39.96319 | 20.83450 | 11166 ft | 353 kts | 34° |
| 2026-04-17 10:08 | 39.98353 | 20.85272 | 11777 ft | 357 kts | 34° |
| 2026-04-17 10:08 | 40.00404 | 20.87106 | 12404 ft | 359 kts | 34° |
| 2026-04-17 10:08 | 40.02478 | 20.88963 | 13012 ft | 364 kts | 34° |
| 2026-04-17 10:08 | 40.04572 | 20.90841 | 13591 ft | 367 kts | 34° |
| 2026-04-17 10:09 | 40.06683 | 20.92743 | 14149 ft | 370 kts | 34° |
| 2026-04-17 10:09 | 40.08118 | 20.94035 | 14500 ft | 372 kts | 34° |
| 2026-04-17 10:09 | 40.10261 | 20.95960 | 15008 ft | 376 kts | 34° |
| 2026-04-17 10:09 | 40.12424 | 20.97907 | 15527 ft | 380 kts | 34° |
| 2026-04-17 10:10 | 40.14608 | 20.99871 | 16059 ft | 383 kts | 34° |
| 2026-04-17 10:10 | 40.16814 | 21.01859 | 16568 ft | 387 kts | 34° |
| 2026-04-17 10:10 | 40.19036 | 21.03868 | 17065 ft | 390 kts | 34° |
| 2026-04-17 10:11 | 40.23533 | 21.07939 | 17987 ft | 396 kts | 34° |
| 2026-04-17 10:11 | 40.25802 | 21.09994 | 18415 ft | 399 kts | 34° |
| 2026-04-17 10:11 | 40.28092 | 21.12069 | 18838 ft | 402 kts | 34° |
| 2026-04-17 10:11 | 40.30398 | 21.14159 | 19266 ft | 405 kts | 34° |
| 2026-04-17 10:12 | 40.32722 | 21.16267 | 19667 ft | 408 kts | 34° |
| 2026-04-17 10:12 | 40.35063 | 21.18391 | 20091 ft | 410 kts | 34° |
| 2026-04-17 10:12 | 40.37413 | 21.20528 | 20511 ft | 413 kts | 34° |
| 2026-04-17 10:12 | 40.39783 | 21.22685 | 20931 ft | 415 kts | 34° |
| 2026-04-17 10:13 | 40.42165 | 21.24845 | 21332 ft | 417 kts | 33° |
| 2026-04-17 10:13 | 40.44720 | 21.26666 | 21698 ft | 420 kts | 23° |
| 2026-04-17 10:13 | 40.47496 | 21.27896 | 22045 ft | 423 kts | 13° |
| 2026-04-17 10:13 | 40.50395 | 21.28559 | 22417 ft | 425 kts | 8° |
| 2026-04-17 10:14 | 40.53330 | 21.29119 | 22787 ft | 427 kts | 8° |
| 2026-04-17 10:14 | 40.56283 | 21.29688 | 23145 ft | 430 kts | 8° |
| 2026-04-17 10:14 | 40.59250 | 21.30269 | 23493 ft | 433 kts | 8° |
| 2026-04-17 10:14 | 40.62232 | 21.30855 | 23855 ft | 435 kts | 8° |
| 2026-04-17 10:15 | 40.65236 | 21.31441 | 24203 ft | 437 kts | 8° |
| 2026-04-17 10:15 | 40.68250 | 21.32028 | 24542 ft | 439 kts | 8° |
| 2026-04-17 10:15 | 40.71281 | 21.32617 | 24874 ft | 441 kts | 8° |
| 2026-04-17 10:15 | 40.74368 | 21.33216 | 25205 ft | 443 kts | 8° |
| 2026-04-17 10:16 | 40.77430 | 21.33813 | 25530 ft | 446 kts | 8° |
| 2026-04-17 10:16 | 40.80502 | 21.34414 | 25866 ft | 448 kts | 8° |
| 2026-04-17 10:16 | 40.83589 | 21.35024 | 26185 ft | 450 kts | 8° |
| 2026-04-17 10:16 | 40.86695 | 21.35631 | 26490 ft | 452 kts | 7° |
| 2026-04-17 10:17 | 40.89836 | 21.35887 | 26778 ft | 454 kts | 1° |
| 2026-04-17 10:17 | 40.92994 | 21.35979 | 27073 ft | 456 kts | 1° |
| 2026-04-17 10:17 | 40.96171 | 21.36070 | 27352 ft | 457 kts | 1° |
| 2026-04-17 10:17 | 40.99358 | 21.36160 | 27622 ft | 459 kts | 0° |
| 2026-04-17 10:18 | 41.02564 | 21.36251 | 27883 ft | 461 kts | 0° |
| 2026-04-17 10:18 | 41.05781 | 21.36348 | 28123 ft | 463 kts | 1° |
| 2026-04-17 10:18 | 41.09006 | 21.36450 | 28358 ft | 465 kts | 1° |
| 2026-04-17 10:18 | 41.12244 | 21.36552 | 28577 ft | 466 kts | 1° |
| 2026-04-17 10:19 | 41.15498 | 21.36651 | 28774 ft | 468 kts | 0° |
| 2026-04-17 10:19 | 41.18752 | 21.36749 | 29050 ft | 468 kts | 0° |
| 2026-04-17 10:19 | 41.22003 | 21.36847 | 29349 ft | 467 kts | 0° |
| 2026-04-17 10:19 | 41.25250 | 21.36946 | 29635 ft | 466 kts | 0° |
| 2026-04-17 10:20 | 41.28492 | 21.37042 | 29914 ft | 466 kts | 0° |
| 2026-04-17 10:20 | 41.31735 | 21.37136 | 30185 ft | 466 kts | 0° |
| 2026-04-17 10:20 | 41.34977 | 21.37232 | 30466 ft | 465 kts | 0° |
| 2026-04-17 10:20 | 41.38210 | 21.37331 | 30744 ft | 465 kts | 0° |
| 2026-04-17 10:21 | 41.41444 | 21.37429 | 31011 ft | 465 kts | 0° |
| 2026-04-17 10:21 | 41.44677 | 21.37530 | 31285 ft | 464 kts | 0° |
| 2026-04-17 10:21 | 41.47897 | 21.37633 | 31560 ft | 463 kts | 0° |
| 2026-04-17 10:21 | 41.51121 | 21.37732 | 31833 ft | 463 kts | 0° |
| 2026-04-17 10:22 | 41.54338 | 21.37826 | 32102 ft | 463 kts | 0° |
| 2026-04-17 10:22 | 41.57556 | 21.37918 | 32379 ft | 462 kts | 0° |
| 2026-04-17 10:22 | 41.60767 | 21.38014 | 32635 ft | 461 kts | 0° |
| 2026-04-17 10:22 | 41.63972 | 21.38113 | 32897 ft | 461 kts | 0° |
| 2026-04-17 10:23 | 41.67175 | 21.38213 | 33157 ft | 460 kts | 0° |
| 2026-04-17 10:23 | 41.70418 | 21.38315 | 33403 ft | 459 kts | 0° |
| 2026-04-17 10:23 | 41.73610 | 21.38416 | 33652 ft | 459 kts | 360° |
| 2026-04-17 10:23 | 41.76797 | 21.38513 | 33903 ft | 458 kts | 360° |
| 2026-04-17 10:24 | 41.79983 | 21.38608 | 34137 ft | 457 kts | 360° |
| 2026-04-17 10:24 | 41.83167 | 21.38704 | 34358 ft | 458 kts | 360° |
| 2026-04-17 10:24 | 41.86349 | 21.38804 | 34597 ft | 457 kts | 360° |
| 2026-04-17 10:24 | 41.89526 | 21.38905 | 34844 ft | 456 kts | 360° |
| 2026-04-17 10:25 | 41.92693 | 21.39010 | 35072 ft | 455 kts | 0° |
| 2026-04-17 10:25 | 41.95862 | 21.39110 | 35306 ft | 455 kts | 0° |
| 2026-04-17 10:25 | 41.99021 | 21.39206 | 35539 ft | 454 kts | 0° |
| 2026-04-17 10:25 | 42.02176 | 21.39299 | 35766 ft | 453 kts | 360° |
| 2026-04-17 10:26 | 42.05329 | 21.39393 | 35968 ft | 453 kts | 360° |
| 2026-04-17 10:26 | 42.11627 | 21.39586 | 36034 ft | 453 kts | 360° |
| 2026-04-17 10:27 | 42.17869 | 21.38991 | 36053 ft | 449 kts | 345° |
| 2026-04-17 10:27 | 42.23896 | 21.36806 | 36051 ft | 448 kts | 343° |
| 2026-04-17 10:28 | 42.29918 | 21.34589 | 36063 ft | 448 kts | 343° |
| 2026-04-17 10:28 | 42.35932 | 21.32365 | 36076 ft | 449 kts | 343° |
| 2026-04-17 10:29 | 42.41060 | 21.30467 | 36092 ft | 449 kts | 343° |
| 2026-04-17 10:29 | 42.46725 | 21.28363 | 36103 ft | 449 kts | 343° |
| 2026-04-17 10:30 | 42.52750 | 21.26128 | 36114 ft | 449 kts | 343° |
| 2026-04-17 10:30 | 42.58781 | 21.23886 | 36132 ft | 449 kts | 343° |
| 2026-04-17 10:31 | 42.64803 | 21.21651 | 36138 ft | 448 kts | 343° |
| 2026-04-17 10:31 | 42.70857 | 21.19391 | 36136 ft | 448 kts | 343° |
| 2026-04-17 10:32 | 42.76866 | 21.17131 | 36130 ft | 448 kts | 343° |
| 2026-04-17 10:32 | 42.82870 | 21.14882 | 36136 ft | 448 kts | 343° |
| 2026-04-17 10:33 | 42.88876 | 21.12633 | 36140 ft | 448 kts | 343° |
| 2026-04-17 10:33 | 42.94884 | 21.10370 | 36139 ft | 447 kts | 343° |
| 2026-04-17 10:34 | 43.00883 | 21.08113 | 36133 ft | 447 kts | 343° |
| 2026-04-17 10:34 | 43.06879 | 21.05848 | 36132 ft | 447 kts | 342° |
| 2026-04-17 10:35 | 43.12872 | 21.03600 | 36122 ft | 447 kts | 344° |
| 2026-04-17 10:35 | 43.18931 | 21.01715 | 36127 ft | 447 kts | 346° |
| 2026-04-17 10:36 | 43.25032 | 21.00043 | 36128 ft | 447 kts | 347° |
| 2026-04-17 10:36 | 43.31060 | 20.98338 | 36130 ft | 446 kts | 346° |
| 2026-04-17 10:37 | 43.37136 | 20.96532 | 36131 ft | 447 kts | 345° |
| 2026-04-17 10:37 | 43.43211 | 20.94702 | 36146 ft | 447 kts | 346° |
| 2026-04-17 10:38 | 43.49283 | 20.92882 | 36150 ft | 447 kts | 346° |
| 2026-04-17 10:38 | 43.55356 | 20.91074 | 36155 ft | 446 kts | 346° |
| 2026-04-17 10:39 | 43.61466 | 20.89255 | 36155 ft | 446 kts | 346° |
| 2026-04-17 10:39 | 43.67533 | 20.87431 | 36159 ft | 446 kts | 345° |
| 2026-04-17 10:40 | 43.73589 | 20.85605 | 36159 ft | 445 kts | 345° |
| 2026-04-17 10:40 | 43.79647 | 20.83783 | 36160 ft | 445 kts | 345° |
| 2026-04-17 10:41 | 43.85709 | 20.81966 | 36163 ft | 446 kts | 345° |
| 2026-04-17 10:41 | 43.90743 | 20.80445 | 36163 ft | 446 kts | 345° |
| 2026-04-17 10:42 | 43.96800 | 20.78615 | 36164 ft | 445 kts | 345° |
| 2026-04-17 10:42 | 44.02852 | 20.76779 | 36164 ft | 445 kts | 345° |
| 2026-04-17 10:43 | 44.08894 | 20.74929 | 36165 ft | 444 kts | 345° |
| 2026-04-17 10:43 | 44.14972 | 20.73074 | 36165 ft | 444 kts | 345° |
| 2026-04-17 10:44 | 44.21004 | 20.71240 | 36160 ft | 444 kts | 345° |
| 2026-04-17 10:44 | 44.27037 | 20.69398 | 36166 ft | 444 kts | 345° |
| 2026-04-17 10:45 | 44.33064 | 20.67553 | 36168 ft | 443 kts | 345° |
| 2026-04-17 10:45 | 44.39095 | 20.65705 | 36171 ft | 444 kts | 345° |
| 2026-04-17 10:46 | 44.45128 | 20.63845 | 36174 ft | 444 kts | 345° |
| 2026-04-17 10:46 | 44.51156 | 20.61982 | 36177 ft | 444 kts | 345° |
| 2026-04-17 10:47 | 44.57184 | 20.60118 | 36183 ft | 443 kts | 345° |
| 2026-04-17 10:47 | 44.63201 | 20.58259 | 36176 ft | 443 kts | 345° |
| 2026-04-17 10:48 | 44.69218 | 20.56390 | 36164 ft | 443 kts | 345° |
| 2026-04-17 10:48 | 44.75234 | 20.54519 | 36162 ft | 443 kts | 345° |
| 2026-04-17 10:49 | 44.81246 | 20.52644 | 36164 ft | 442 kts | 344° |
| 2026-04-17 10:49 | 44.87248 | 20.50772 | 36164 ft | 442 kts | 344° |
| 2026-04-17 10:50 | 44.93246 | 20.48894 | 36165 ft | 441 kts | 344° |
| 2026-04-17 10:50 | 44.99239 | 20.47008 | 36165 ft | 442 kts | 344° |
| 2026-04-17 10:51 | 45.05238 | 20.45114 | 36165 ft | 441 kts | 344° |
| 2026-04-17 10:51 | 45.11276 | 20.43216 | 36165 ft | 441 kts | 344° |
| 2026-04-17 10:52 | 45.17263 | 20.41338 | 36160 ft | 441 kts | 344° |
| 2026-04-17 10:52 | 45.23244 | 20.39444 | 36161 ft | 440 kts | 344° |
| 2026-04-17 10:53 | 45.29221 | 20.37540 | 36165 ft | 440 kts | 344° |
| 2026-04-17 10:53 | 45.35192 | 20.35645 | 36165 ft | 439 kts | 344° |
| 2026-04-17 10:54 | 45.41153 | 20.33740 | 36165 ft | 439 kts | 344° |
| 2026-04-17 10:54 | 45.47111 | 20.31842 | 36166 ft | 439 kts | 344° |
| 2026-04-17 10:55 | 45.53074 | 20.29941 | 36166 ft | 438 kts | 344° |
| 2026-04-17 10:55 | 45.59020 | 20.28040 | 36167 ft | 438 kts | 344° |
| 2026-04-17 10:56 | 45.64956 | 20.26127 | 36164 ft | 437 kts | 344° |
| 2026-04-17 10:56 | 45.70884 | 20.24210 | 36163 ft | 437 kts | 344° |
| 2026-04-17 10:57 | 45.76812 | 20.22305 | 36168 ft | 437 kts | 344° |
| 2026-04-17 10:57 | 45.82737 | 20.20391 | 36171 ft | 436 kts | 344° |
| 2026-04-17 10:58 | 45.88663 | 20.18467 | 36173 ft | 436 kts | 344° |
| 2026-04-17 10:58 | 45.94581 | 20.16544 | 36177 ft | 436 kts | 344° |
| 2026-04-17 10:59 | 46.00499 | 20.14621 | 36180 ft | 435 kts | 344° |
| 2026-04-17 10:59 | 46.06444 | 20.12676 | 36179 ft | 435 kts | 344° |
| 2026-04-17 11:00 | 46.12352 | 20.10746 | 36183 ft | 435 kts | 344° |
| 2026-04-17 11:00 | 46.18377 | 20.09698 | 36185 ft | 442 kts | 359° |
| 2026-04-17 11:01 | 46.24523 | 20.10446 | 36181 ft | 443 kts | 1° |
| 2026-04-17 11:01 | 46.30668 | 20.11190 | 36181 ft | 443 kts | 1° |
| 2026-04-17 11:02 | 46.36816 | 20.11946 | 36184 ft | 444 kts | 1° |
| 2026-04-17 11:02 | 46.42962 | 20.12713 | 36186 ft | 444 kts | 1° |
| 2026-04-17 11:03 | 46.49122 | 20.13477 | 36191 ft | 444 kts | 1° |
| 2026-04-17 11:03 | 46.55280 | 20.14237 | 36186 ft | 444 kts | 1° |
| 2026-04-17 11:04 | 46.61437 | 20.15013 | 36192 ft | 444 kts | 1° |
| 2026-04-17 11:04 | 46.67598 | 20.15796 | 36190 ft | 445 kts | 1° |
| 2026-04-17 11:05 | 46.73757 | 20.16581 | 36188 ft | 445 kts | 1° |
| 2026-04-17 11:05 | 46.79922 | 20.17359 | 36187 ft | 445 kts | 1° |
| 2026-04-17 11:06 | 46.86091 | 20.18128 | 36190 ft | 445 kts | 1° |
| 2026-04-17 11:06 | 46.92258 | 20.18907 | 36184 ft | 445 kts | 1° |
| 2026-04-17 11:07 | 46.98424 | 20.19690 | 36192 ft | 445 kts | 1° |
| 2026-04-17 11:07 | 47.04625 | 20.20480 | 36187 ft | 444 kts | 1° |
| 2026-04-17 11:08 | 47.10783 | 20.21265 | 36188 ft | 444 kts | 1° |
| 2026-04-17 11:08 | 47.16949 | 20.22043 | 36191 ft | 444 kts | 1° |
| 2026-04-17 11:09 | 47.23102 | 20.22827 | 36188 ft | 444 kts | 1° |
| 2026-04-17 11:09 | 47.29258 | 20.23626 | 36191 ft | 444 kts | 1° |
| 2026-04-17 11:10 | 47.38485 | 20.24820 | 36192 ft | 444 kts | 1° |
| 2026-04-17 11:10 | 47.44636 | 20.25610 | 36190 ft | 443 kts | 1° |
| 2026-04-17 11:11 | 47.50783 | 20.26402 | 36190 ft | 443 kts | 1° |
| 2026-04-17 11:11 | 47.56921 | 20.27197 | 36192 ft | 443 kts | 1° |
| 2026-04-17 11:12 | 47.63097 | 20.28003 | 36190 ft | 443 kts | 1° |
| 2026-04-17 11:12 | 47.69202 | 20.28795 | 36187 ft | 442 kts | 1° |
| 2026-04-17 11:13 | 47.75339 | 20.29601 | 36193 ft | 443 kts | 1° |
| 2026-04-17 11:13 | 47.81471 | 20.30423 | 36188 ft | 443 kts | 1° |
| 2026-04-17 11:14 | 47.86614 | 20.31098 | 36189 ft | 443 kts | 1° |
| 2026-04-17 11:14 | 47.92751 | 20.31900 | 36195 ft | 443 kts | 1° |
| 2026-04-17 11:15 | 47.98884 | 20.32703 | 36194 ft | 442 kts | 1° |
| 2026-04-17 11:15 | 48.05013 | 20.33511 | 36198 ft | 442 kts | 1° |
| 2026-04-17 11:16 | 48.11144 | 20.34324 | 36198 ft | 442 kts | 1° |
| 2026-04-17 11:16 | 48.17267 | 20.35136 | 36199 ft | 442 kts | 1° |
| 2026-04-17 11:17 | 48.23388 | 20.35955 | 36199 ft | 442 kts | 1° |
| 2026-04-17 11:17 | 48.29517 | 20.36775 | 36188 ft | 442 kts | 1° |
| 2026-04-17 11:18 | 48.35592 | 20.36575 | 36192 ft | 435 kts | 349° |
| 2026-04-17 11:18 | 48.41605 | 20.35384 | 36192 ft | 436 kts | 349° |
| 2026-04-17 11:19 | 48.47655 | 20.34201 | 36187 ft | 436 kts | 349° |
| 2026-04-17 11:19 | 48.53670 | 20.33020 | 36190 ft | 435 kts | 349° |
| 2026-04-17 11:20 | 48.59678 | 20.31844 | 36189 ft | 436 kts | 349° |
| 2026-04-17 11:20 | 48.65691 | 20.30655 | 36186 ft | 436 kts | 349° |
| 2026-04-17 11:21 | 48.71709 | 20.29472 | 36187 ft | 436 kts | 349° |
| 2026-04-17 11:21 | 48.77731 | 20.28285 | 36185 ft | 436 kts | 349° |
| 2026-04-17 11:22 | 48.83752 | 20.27091 | 36189 ft | 436 kts | 349° |
| 2026-04-17 11:22 | 48.89774 | 20.25889 | 36190 ft | 436 kts | 349° |
| 2026-04-17 11:23 | 48.95789 | 20.24685 | 36187 ft | 436 kts | 349° |
| 2026-04-17 11:23 | 49.01806 | 20.23482 | 36184 ft | 436 kts | 349° |
| 2026-04-17 11:24 | 49.07821 | 20.22282 | 36186 ft | 436 kts | 349° |
| 2026-04-17 11:24 | 49.13836 | 20.21074 | 36190 ft | 436 kts | 349° |
| 2026-04-17 11:25 | 49.19856 | 20.19855 | 36187 ft | 436 kts | 349° |
| 2026-04-17 11:25 | 49.25819 | 20.18650 | 36191 ft | 436 kts | 350° |
| 2026-04-17 11:26 | 49.31919 | 20.17873 | 36182 ft | 439 kts | 0° |
| 2026-04-17 11:26 | 49.37998 | 20.19200 | 36197 ft | 442 kts | 6° |
| 2026-04-17 11:27 | 49.44110 | 20.20753 | 36198 ft | 442 kts | 6° |
| 2026-04-17 11:27 | 49.50182 | 20.22294 | 36200 ft | 442 kts | 6° |
| 2026-04-17 11:28 | 49.56255 | 20.23849 | 36201 ft | 442 kts | 6° |
| 2026-04-17 11:28 | 49.62314 | 20.25399 | 36203 ft | 441 kts | 6° |
| 2026-04-17 11:29 | 49.68373 | 20.26940 | 36202 ft | 441 kts | 6° |
| 2026-04-17 11:29 | 49.74436 | 20.28482 | 36208 ft | 441 kts | 6° |
| 2026-04-17 11:30 | 49.80490 | 20.30035 | 36209 ft | 441 kts | 6° |
| 2026-04-17 11:30 | 49.86541 | 20.31603 | 36209 ft | 441 kts | 6° |
| 2026-04-17 11:31 | 49.91574 | 20.32914 | 36208 ft | 441 kts | 6° |